Time;durP1;ratioP1;P1;durP2;ratioP2;P2;SDS_P1;SDS_P2;PMS_P1;PMS_P2;Temp;Humidity;BMP_temperature;BMP_pressure;BME280_temperature;BME280_humidity;BME280_pressure;Samples;Min_cycle;Max_cycle;Signal;HPM_P1;HPM_P2
2022/12/04 00:00:31;;;;;;;33.43;14.20;;;;;;;6.61;96.60;98154.78;5077446;28;20254;-79
2022/12/04 00:02:58;;;;;;;29.97;13.70;;;;;;;6.66;95.74;98152.16;5087115;28;20201;-79
2022/12/04 00:05:25;;;;;;;29.47;14.43;;;;;;;6.72;96.13;98149.50;5086777;28;20591;-79
2022/12/04 00:07:52;;;;;;;32.93;15.57;;;;;;;6.73;96.03;98148.59;5087374;28;20205;-79
2022/12/04 00:10:19;;;;;;;35.80;16.70;;;;;;;6.65;96.29;98150.41;5086785;28;20197;-78
2022/12/04 00:12:46;;;;;;;32.03;16.23;;;;;;;6.85;95.42;98153.59;5086600;28;20756;-78
2022/12/04 00:15:14;;;;;;;32.93;16.40;;;;;;;6.74;95.37;98125.41;5086969;28;20201;-77
2022/12/04 00:17:56;;;;;;;33.37;17.30;;;;;;;6.90;94.47;98146.66;5086827;28;20694;-78
2022/12/04 00:20:23;;;;;;;37.23;16.63;;;;;;;6.97;94.58;98138.81;5087341;28;20226;-80
2022/12/04 00:22:50;;;;;;;31.40;15.47;;;;;;;6.92;93.70;98150.06;5086716;28;20695;-80
2022/12/04 00:25:16;;;;;;;32.57;15.00;;;;;;;6.90;93.40;98144.09;5086962;28;20588;-79
2022/12/04 00:27:43;;;;;;;25.93;13.77;;;;;;;6.75;95.02;98146.84;5068617;28;20244;-76
2022/12/04 00:30:11;;;;;;;30.33;14.47;;;;;;;6.75;94.08;98121.97;5086702;28;20198;-79
2022/12/04 00:32:38;;;;;;;26.43;14.43;;;;;;;6.94;93.52;98153.47;5086371;28;20615;-78
2022/12/04 00:35:05;;;;;;;32.23;15.53;;;;;;;7.07;94.09;98155.84;5086437;28;20680;-81
2022/12/04 00:37:32;;;;;;;31.13;15.10;;;;;;;7.22;93.35;98149.63;5086535;28;20206;-80
2022/12/04 00:39:59;;;;;;;30.63;14.27;;;;;;;7.12;92.65;98142.91;5068651;28;20222;-81
2022/12/04 00:42:26;;;;;;;33.87;14.47;;;;;;;7.07;93.44;98139.53;5090501;28;20214;-79
2022/12/04 00:44:53;;;;;;;29.57;15.27;;;;;;;6.86;92.95;98119.25;5090506;28;20693;-81
2022/12/04 00:47:20;;;;;;;30.93;14.90;;;;;;;7.08;92.52;98149.84;5090877;28;20301;-79
2022/12/04 00:49:47;;;;;;;26.60;13.70;;;;;;;6.94;93.72;98153.47;5091071;28;20583;-81
2022/12/04 00:52:13;;;;;;;30.27;14.23;;;;;;;6.72;95.43;98149.50;5090200;28;20190;-80
2022/12/04 00:54:40;;;;;;;28.57;14.00;;;;;;;6.86;93.64;98148.41;5090353;28;20293;-79
2022/12/04 00:57:07;;;;;;;35.30;15.97;;;;;;;6.82;94.79;98148.50;5090915;28;20223;-77
2022/12/04 00:59:36;;;;;;;30.03;16.00;;;;;;;6.86;94.36;98150.97;5090392;28;20641;-78
2022/12/04 01:02:03;;;;;;;27.93;14.93;;;;;;;6.69;94.28;98127.22;5090066;28;20206;-80
2022/12/04 01:04:30;;;;;;;30.83;15.70;;;;;;;6.93;93.42;98150.03;5090189;28;20206;-77
2022/12/04 01:06:57;;;;;;;32.37;16.13;;;;;;;6.96;93.09;98137.13;5090301;28;20248;-78
2022/12/04 01:09:32;;;;;;;29.23;15.20;;;;;;;7.00;93.78;98140.50;5090303;28;20220;-78
2022/12/04 01:11:58;;;;;;;30.40;15.63;;;;;;;7.04;93.26;98139.59;5081895;28;20201;-80
2022/12/04 01:14:25;;;;;;;35.47;15.43;;;;;;;7.06;92.60;98148.16;5076242;28;20287;-79
2022/12/04 01:16:52;;;;;;;32.40;16.37;;;;;;;7.11;93.87;98148.94;5052261;28;20284;-78
2022/12/04 01:19:19;;;;;;;34.97;15.83;;;;;;;6.97;93.49;98148.25;5075540;28;20242;-79
2022/12/04 01:21:46;;;;;;;39.57;17.23;;;;;;;6.97;93.63;98151.69;5064261;28;20191;-77
2022/12/04 01:24:13;;;;;;;29.67;14.60;;;;;;;6.74;95.14;98137.44;5077762;28;20690;-80
2022/12/04 01:26:40;;;;;;;31.77;15.43;;;;;;;6.88;95.36;98146.69;5069758;28;20247;-81
2022/12/04 01:29:07;;;;;;;34.50;15.63;;;;;;;7.07;94.35;98149.84;5069683;28;20192;-80
2022/12/04 01:31:34;;;;;;;31.97;14.83;;;;;;;6.98;93.86;98134.53;5074233;28;20197;-80
2022/12/04 01:34:01;;;;;;;33.37;14.87;;;;;;;6.84;94.30;98123.56;5078751;28;20702;-76
2022/12/04 01:36:28;;;;;;;34.27;15.50;;;;;;;6.92;95.28;98129.47;5069214;28;20225;-77
2022/12/04 01:38:55;;;;;;;37.83;16.30;;;;;;;6.86;95.37;98145.84;5069629;28;20647;-76
2022/12/04 01:41:26;;;;;;;33.83;14.63;;;;;;;6.87;94.99;98144.97;5074161;28;20881;-76
2022/12/04 01:44:11;;;;;;;33.87;14.13;;;;;;;6.97;94.83;98143.13;5078668;28;20234;-77
2022/12/04 01:46:39;;;;;;;36.60;15.70;;;;;;;6.72;96.20;98110.88;5089400;28;20991;-77
2022/12/04 01:49:41;;;;;;;37.63;15.53;;;;;;;6.91;94.78;98130.31;5089178;28;20605;-77
2022/12/04 01:52:08;;;;;;;39.27;13.83;;;;;;;6.59;96.57;98135.91;5079726;28;20557;-75
2022/12/04 01:54:41;;;;;;;42.67;15.07;;;;;;;6.50;97.63;98125.72;5078181;28;20309;-77
2022/12/04 01:57:13;;;;;;;42.67;13.30;;;;;;;6.40;98.75;98144.72;5068983;28;20195;-79
2022/12/04 02:00:10;;;;;;;38.73;14.83;;;;;;;6.57;97.97;98130.78;5068656;28;20254;-78
2022/12/04 02:02:41;;;;;;;36.50;14.93;;;;;;;6.27;98.82;98126.00;5078034;28;20202;-78
2022/12/04 02:05:12;;;;;;;41.30;15.80;;;;;;;6.59;99.20;98141.91;5073620;28;20790;-78
2022/12/04 02:07:43;;;;;;;39.53;16.10;;;;;;;6.35;99.29;98128.47;5068632;28;20245;-79
2022/12/04 02:10:11;;;;;;;32.23;15.53;;;;;;;6.62;98.20;98135.00;5068491;28;20206;-78
2022/12/04 02:13:04;;;;;;;37.13;14.93;;;;;;;6.72;98.74;98134.03;5078043;28;20206;-76
2022/12/04 02:16:09;;;;;;;35.13;15.97;;;;;;;6.61;97.25;98103.28;5069732;28;20755;-77
2022/12/04 02:18:50;;;;;;;39.27;16.20;;;;;;;6.80;97.64;98127.06;4967248;28;20280;-78
2022/12/04 02:21:39;;;;;;;38.47;16.87;;;;;;;6.50;98.25;98125.72;4974668;28;20284;-77
2022/12/04 02:24:27;;;;;;;37.30;17.00;;;;;;;6.66;97.27;98113.53;5054333;28;20398;-78
2022/12/04 02:27:32;;;;;;;35.80;15.47;;;;;;;6.76;97.90;98135.72;5068786;28;20198;-77
2022/12/04 02:30:06;;;;;;;34.60;15.40;;;;;;;6.76;96.91;98139.09;5050534;28;20213;-77
2022/12/04 02:32:49;;;;;;;36.13;15.97;;;;;;;6.64;97.27;98126.41;5077153;28;20206;-77
2022/12/04 02:35:19;;;;;;;35.60;17.47;;;;;;;6.58;96.88;98127.34;5073047;28;20232;-78
2022/12/04 02:37:51;;;;;;;36.07;15.97;;;;;;;6.69;96.38;98128.91;5068338;28;20199;-78
2022/12/04 02:40:25;;;;;;;33.00;15.07;;;;;;;6.69;96.10;98129.78;5068537;28;20321;-77
2022/12/04 02:42:55;;;;;;;38.60;14.97;;;;;;;6.75;96.52;98126.25;5059523;28;20289;-79
2022/12/04 02:45:39;;;;;;;36.30;15.67;;;;;;;6.76;95.77;98115.13;5071204;28;20202;-78
2022/12/04 02:48:07;;;;;;;34.23;15.20;;;;;;;6.66;96.18;98128.97;5068276;28;20193;-78
2022/12/04 02:50:38;;;;;;;32.83;14.93;;;;;;;6.79;95.76;98135.66;5069766;28;20204;-80
2022/12/04 02:53:15;;;;;;;32.77;14.10;;;;;;;6.83;95.94;98140.75;5079007;28;20206;-78
2022/12/04 02:56:05;;;;;;;29.47;14.20;;;;;;;6.86;94.72;98140.69;5068433;28;20716;-78
2022/12/04 02:59:01;;;;;;;30.40;14.43;;;;;;;6.86;95.54;98134.72;5067919;28;20234;-80
2022/12/04 03:01:33;;;;;;;25.63;13.00;;;;;;;6.80;94.54;98134.78;5063112;28;20303;-77
2022/12/04 03:04:03;;;;;;;26.20;12.37;;;;;;;6.72;95.29;98129.72;5076758;28;20201;-77
2022/12/04 03:06:35;;;;;;;25.13;12.17;;;;;;;6.65;95.98;98134.97;5088000;28;20293;-77
2022/12/04 03:09:10;;;;;;;23.43;11.83;;;;;;;6.78;95.25;98131.38;5088230;28;20185;-78
2022/12/04 03:11:42;;;;;;;30.20;12.43;;;;;;;6.78;94.86;98141.69;5086038;28;20207;-77
2022/12/04 03:14:21;;;;;;;25.50;12.07;;;;;;;6.79;94.76;98138.22;5082108;28;20196;-77
2022/12/04 03:16:53;;;;;;;20.60;11.73;;;;;;;6.74;94.26;98132.31;5073773;28;20209;-76
2022/12/04 03:19:26;;;;;;;22.37;12.07;;;;;;;6.68;95.04;98140.09;5075192;28;20210;-76
2022/12/04 03:21:58;;;;;;;24.93;12.37;;;;;;;6.32;97.66;98134.53;5080453;28;20215;-76
2022/12/04 03:24:33;;;;;;;20.63;10.60;;;;;;;6.29;97.62;98138.84;5081213;28;20272;-76
2022/12/04 03:27:15;;;;;;;27.90;11.50;;;;;;;6.24;97.96;98138.91;5084876;28;20223;-76
2022/12/04 03:29:49;;;;;;;30.17;11.57;;;;;;;6.32;97.96;98128.53;5077103;28;20307;-80
2022/12/04 03:32:44;;;;;;;31.70;13.57;;;;;;;6.24;97.32;98128.63;5071629;28;20191;-80
2022/12/04 03:35:38;;;;;;;26.30;12.70;;;;;;;6.18;98.16;98120.94;5071128;28;20740;-79
2022/12/04 03:38:16;;;;;;;21.30;11.20;;;;;;;6.35;97.16;98131.06;5073869;28;20240;-79
2022/12/04 03:41:06;;;;;;;23.90;12.37;;;;;;;6.41;97.26;98124.13;5072890;28;20226;-80
2022/12/04 03:43:45;;;;;;;23.07;11.00;;;;;;;6.22;96.92;98125.19;5067202;28;20710;-80
2022/12/04 03:46:28;;;;;;;24.97;12.07;;;;;;;6.41;97.77;98125.81;5069150;28;20560;-80
2022/12/04 03:49:21;;;;;;;23.63;11.43;;;;;;;6.48;97.15;98130.91;5085972;28;20582;-78
2022/12/04 03:52:01;;;;;;;21.17;11.20;;;;;;;6.55;95.22;98129.94;5082454;28;20206;-81
2022/12/04 03:54:31;;;;;;;23.73;11.20;;;;;;;6.41;97.27;98133.53;5076438;28;20204;-80
2022/12/04 03:57:11;;;;;;;18.47;11.17;;;;;;;6.33;97.50;98131.06;5076856;28;20198;-79
2022/12/04 03:59:44;;;;;;;16.83;9.73;;;;;;;6.53;95.88;98136.81;5079983;28;20408;-80
2022/12/04 04:02:15;;;;;;;22.73;10.17;;;;;;;6.56;95.55;98136.81;5082703;28;20362;-80
2022/12/04 04:04:46;;;;;;;15.87;9.73;;;;;;;6.40;94.32;98137.00;5086845;28;20306;-80
2022/12/04 04:07:21;;;;;;;18.17;8.47;;;;;;;6.33;95.38;98122.50;5080539;28;20546;-80
2022/12/04 04:09:53;;;;;;;15.63;8.97;;;;;;;6.24;96.39;98141.50;5081187;28;20660;-79
2022/12/04 04:12:24;;;;;;;15.43;9.00;;;;;;;6.29;95.80;98142.28;5086502;28;20195;-80
2022/12/04 04:26:44;;;;;;;21.70;11.00;;;;;;;6.44;96.22;98154.09;4981955;28;20217;-80
2022/12/04 04:29:12;;;;;;;20.80;9.77;;;;;;;6.44;96.86;98149.81;5040424;28;20216;-80
2022/12/04 04:32:03;;;;;;;18.60;9.70;;;;;;;6.43;96.13;98153.25;5071857;28;20728;-80
2022/12/04 04:34:38;;;;;;;19.67;10.57;;;;;;;6.39;95.82;98161.88;5079081;28;20194;-80
2022/12/04 04:37:18;;;;;;;16.77;10.73;;;;;;;6.36;96.28;98153.34;5066377;28;20225;-79
2022/12/04 04:39:57;;;;;;;19.43;9.67;;;;;;;6.41;96.35;98162.72;5079138;28;20207;-80
2022/12/04 04:42:28;;;;;;;16.33;8.47;;;;;;;6.37;95.13;98163.59;5069706;28;20197;-80
2022/12/04 04:45:04;;;;;;;20.13;10.13;;;;;;;6.32;96.03;98151.69;5069815;28;20195;-76
2022/12/04 04:47:44;;;;;;;17.43;8.77;;;;;;;6.25;95.88;98161.19;5080452;28;20223;-80
2022/12/04 04:50:13;;;;;;;14.43;8.97;;;;;;;6.37;96.14;98155.91;5071518;28;20230;-80
2022/12/04 04:52:45;;;;;;;18.03;8.57;;;;;;;6.13;95.55;98145.88;5072272;28;20290;-79
2022/12/04 04:55:15;;;;;;;13.90;8.53;;;;;;;6.24;96.40;98164.63;5073435;28;20701;-79
2022/12/04 04:57:42;;;;;;;16.17;8.63;;;;;;;6.29;95.66;98173.13;5080016;28;20305;-81
2022/12/04 05:00:15;;;;;;;16.10;9.07;;;;;;;6.10;96.20;98166.47;5065937;28;20749;-81
2022/12/04 05:02:42;;;;;;;13.57;8.90;;;;;;;6.12;95.92;98169.88;5069216;28;20306;-80
2022/12/04 05:05:11;;;;;;;14.17;8.07;;;;;;;6.06;96.74;98158.84;5086298;28;20651;-80
2022/12/04 05:07:38;;;;;;;14.33;8.73;;;;;;;6.08;96.64;98168.22;5068038;28;20205;-81
2022/12/04 05:10:07;;;;;;;15.87;8.90;;;;;;;6.02;96.61;98142.56;5085939;28;20201;-81
2022/12/04 05:12:34;;;;;;;17.50;9.20;;;;;;;5.96;97.53;98155.47;5086152;28;20204;-79
2022/12/04 05:15:01;;;;;;;24.97;13.43;;;;;;;6.09;97.41;98159.66;5086475;28;20213;-81
2022/12/04 05:17:29;;;;;;;21.30;11.20;;;;;;;6.25;96.31;98165.47;5085940;28;20289;-79
2022/12/04 05:19:56;;;;;;;16.93;9.83;;;;;;;6.25;96.90;98176.63;5067353;28;20213;-79
2022/12/04 05:22:28;;;;;;;15.07;8.47;;;;;;;6.24;96.21;98182.63;5066076;28;20612;-82
2022/12/04 05:24:55;;;;;;;19.00;9.30;;;;;;;6.30;96.54;98169.72;5067155;28;20286;-76
2022/12/04 05:27:24;;;;;;;17.83;9.57;;;;;;;6.24;95.82;98174.94;5072359;28;20224;-75
2022/12/04 05:29:52;;;;;;;18.63;9.57;;;;;;;6.24;95.96;98168.91;5071890;28;20196;-77
2022/12/04 05:32:21;;;;;;;24.00;11.30;;;;;;;6.29;95.49;98180.84;5071018;28;20238;-79
2022/12/04 05:34:49;;;;;;;18.17;10.27;;;;;;;6.15;96.37;98174.16;5070640;28;20198;-80
2022/12/04 05:37:16;;;;;;;21.67;11.30;;;;;;;6.21;96.78;98171.50;5070485;28;20207;-80
2022/12/04 05:39:43;;;;;;;21.13;12.00;;;;;;;6.10;95.89;98181.91;5070633;28;20208;-79
2022/12/04 05:42:11;;;;;;;17.83;9.93;;;;;;;5.99;96.23;98173.47;5089937;28;20257;-77
2022/12/04 05:44:38;;;;;;;18.17;11.03;;;;;;;6.07;96.38;98166.53;5089982;28;20668;-78
2022/12/04 05:47:06;;;;;;;17.97;10.43;;;;;;;6.06;97.16;98180.22;5089870;28;20283;-79
2022/12/04 05:49:33;;;;;;;19.43;11.17;;;;;;;6.19;96.41;98186.97;5089581;28;20198;-79
2022/12/04 05:52:02;;;;;;;19.97;11.50;;;;;;;6.27;96.14;98199.72;5089296;28;20615;-80
2022/12/04 05:54:29;;;;;;;19.53;11.43;;;;;;;6.24;95.53;98194.63;5071523;28;20283;-79
2022/12/04 05:56:56;;;;;;;19.73;12.17;;;;;;;6.11;96.07;98200.75;5089486;28;20190;-78
2022/12/04 05:59:23;;;;;;;21.80;11.77;;;;;;;6.19;94.51;98176.69;5088900;28;20324;-77
2022/12/04 06:01:50;;;;;;;26.20;13.73;;;;;;;6.27;96.32;98190.31;5088944;28;20221;-80
2022/12/04 06:04:17;;;;;;;23.00;12.43;;;;;;;6.23;95.51;98203.22;5070906;28;20218;-80
2022/12/04 06:06:44;;;;;;;24.20;12.50;;;;;;;6.26;94.69;98206.63;5089026;28;20201;-81
2022/12/04 06:09:11;;;;;;;21.30;13.00;;;;;;;6.23;94.79;98203.22;5089334;28;20297;-80
2022/12/04 06:11:40;;;;;;;20.27;12.27;;;;;;;6.36;96.58;98205.66;5071091;28;20285;-80
2022/12/04 06:14:12;;;;;;;26.47;14.30;;;;;;;6.39;95.07;98221.03;5089132;28;20198;-80
2022/12/04 06:16:42;;;;;;;28.13;15.10;;;;;;;6.30;95.17;98213.44;5089259;28;20627;-80
2022/12/04 06:19:18;;;;;;;25.17;13.23;;;;;;;6.16;95.87;98214.44;5088787;28;20189;-79
2022/12/04 06:21:48;;;;;;;19.70;11.43;;;;;;;6.14;96.15;98214.44;5089160;28;20216;-81
2022/12/04 06:24:22;;;;;;;23.27;12.67;;;;;;;5.98;97.24;98201.72;5089269;28;20209;-80
2022/12/04 06:26:49;;;;;;;22.77;11.90;;;;;;;6.06;96.86;98221.38;5088859;28;20205;-80
2022/12/04 06:29:36;;;;;;;18.97;11.50;;;;;;;5.89;97.25;98209.53;5088777;28;20188;-81
2022/12/04 06:32:03;;;;;;;21.37;12.70;;;;;;;6.11;97.04;98191.34;5088671;28;20281;-80
2022/12/04 06:34:31;;;;;;;21.47;13.27;;;;;;;6.26;96.14;98229.78;5081186;28;20232;-81
2022/12/04 06:36:58;;;;;;;24.50;15.13;;;;;;;6.15;96.52;98229.00;5089037;28;20218;-81
2022/12/04 06:39:24;;;;;;;21.43;14.07;;;;;;;6.35;95.60;98232.22;5087343;28;20193;-79
2022/12/04 06:41:51;;;;;;;22.37;13.17;;;;;;;6.47;96.03;98236.41;5088844;28;20236;-81
2022/12/04 06:44:18;;;;;;;17.97;11.17;;;;;;;6.32;94.73;98236.56;5088553;28;20209;-82
2022/12/04 06:46:45;;;;;;;24.40;14.80;;;;;;;6.59;94.86;98234.53;5088664;28;20239;-81
2022/12/04 06:49:14;;;;;;;20.60;13.67;;;;;;;6.49;95.59;98229.53;5088131;28;20198;-80
2022/12/04 06:51:41;;;;;;;20.03;13.07;;;;;;;6.45;94.00;98231.28;5088393;28;20188;-81
2022/12/04 06:54:09;;;;;;;21.77;13.87;;;;;;;6.50;95.41;98226.94;5088174;28;20232;-81
2022/12/04 06:56:36;;;;;;;20.37;13.30;;;;;;;6.57;95.27;98232.88;5087080;28;20700;-80
2022/12/04 06:59:03;;;;;;;21.60;13.10;;;;;;;6.13;95.22;98206.75;5088316;28;20282;-81
2022/12/04 07:01:32;;;;;;;21.97;12.87;;;;;;;6.24;95.47;98234.06;5088046;28;20213;-80
2022/12/04 07:04:02;;;;;;;22.67;13.53;;;;;;;6.33;95.27;98228.81;5088820;28;20742;-80
2022/12/04 07:06:35;;;;;;;21.83;12.27;;;;;;;6.36;95.38;98246.81;5088234;28;20257;-78
2022/12/04 07:09:02;;;;;;;19.73;12.30;;;;;;;6.53;94.58;98237.19;5088236;28;20233;-77
2022/12/04 07:11:30;;;;;;;23.50;13.97;;;;;;;6.45;95.27;98235.59;5088236;28;20201;-80
2022/12/04 07:13:57;;;;;;;22.10;13.57;;;;;;;6.52;94.29;98230.34;5088615;28;20649;-81
2022/12/04 07:16:25;;;;;;;19.23;13.90;;;;;;;6.63;93.96;98239.66;5088182;28;20209;-78
2022/12/04 07:18:52;;;;;;;20.83;12.13;;;;;;;6.46;94.76;98230.41;5087860;28;20199;-79
2022/12/04 07:21:22;;;;;;;16.67;10.33;;;;;;;6.47;95.21;98239.00;5087876;28;20234;-79
2022/12/04 07:23:52;;;;;;;19.73;12.53;;;;;;;6.39;95.24;98236.47;5087690;28;20592;-79
2022/12/04 07:26:19;;;;;;;18.13;12.40;;;;;;;6.21;96.15;98248.66;5088123;28;20223;-82
2022/12/04 07:28:47;;;;;;;19.83;12.10;;;;;;;6.08;96.70;98224.78;5087728;28;20205;-79
2022/12/04 07:31:17;;;;;;;23.13;11.83;;;;;;;6.32;96.50;98239.13;5087862;28;20197;-76
2022/12/04 07:33:44;;;;;;;19.07;11.90;;;;;;;6.24;95.77;98241.78;5087890;28;20222;-75
2022/12/04 07:36:14;;;;;;;20.43;10.93;;;;;;;6.15;95.87;98241.88;5082674;28;20292;-77
2022/12/04 07:38:41;;;;;;;16.03;10.80;;;;;;;6.05;96.67;98247.09;5088073;28;20202;-79
2022/12/04 07:41:11;;;;;;;13.77;9.07;;;;;;;5.81;96.72;98209.59;5088909;28;20288;-77
2022/12/04 07:43:38;;;;;;;15.30;9.20;;;;;;;6.07;97.24;98248.81;5088075;28;20271;-76
2022/12/04 07:46:09;;;;;;;14.97;9.23;;;;;;;6.07;97.63;98238.50;5087319;28;20193;-81
2022/12/04 07:48:36;;;;;;;15.40;9.37;;;;;;;6.34;96.73;98247.69;5087886;28;20262;-79
2022/12/04 07:51:12;;;;;;;13.07;9.83;;;;;;;6.24;95.58;98252.09;5089756;28;20639;-82
2022/12/04 07:53:41;;;;;;;18.13;11.43;;;;;;;6.11;96.06;98253.06;5090465;28;20233;-82
2022/12/04 07:56:11;;;;;;;17.77;10.50;;;;;;;6.34;95.24;98256.28;5088108;28;20190;-81
2022/12/04 07:58:40;;;;;;;19.20;11.43;;;;;;;6.36;95.06;98257.09;5075454;28;20240;-79
2022/12/04 08:01:15;;;;;;;15.43;10.13;;;;;;;6.26;94.95;98252.06;5073123;28;20250;-80
2022/12/04 08:07:05;;;;;;;17.23;10.90;;;;;;;6.03;96.77;98256.53;5066675;28;20216;-77
2022/12/04 08:09:32;;;;;;;18.07;11.80;;;;;;;6.07;96.61;98255.66;5066500;28;20197;-78
2022/12/04 08:12:04;;;;;;;21.27;13.10;;;;;;;6.30;96.04;98253.72;5072941;28;20201;-80
2022/12/04 08:14:32;;;;;;;21.87;13.57;;;;;;;6.25;95.14;98238.34;5016501;28;20221;-80
2022/12/04 08:16:59;;;;;;;19.17;13.67;;;;;;;6.25;95.91;98243.47;5066185;28;20885;-76
2022/12/04 08:19:26;;;;;;;16.40;11.00;;;;;;;6.24;95.34;98262.38;5066962;28;20284;-75
2022/12/04 08:21:54;;;;;;;18.80;12.23;;;;;;;6.35;95.07;98257.97;5067171;28;20233;-78
2022/12/04 08:24:21;;;;;;;18.63;11.90;;;;;;;6.30;94.90;98241.72;5067302;28;20215;-75
2022/12/04 08:26:47;;;;;;;16.03;10.53;;;;;;;6.43;94.16;98263.88;5067816;28;20679;-77
2022/12/04 08:29:14;;;;;;;16.23;12.77;;;;;;;6.51;94.37;98249.22;5068413;28;20685;-78
2022/12/04 08:31:42;;;;;;;16.17;10.10;;;;;;;6.43;93.76;98257.88;5069555;28;20614;-78
2022/12/04 08:34:12;;;;;;;14.60;10.17;;;;;;;6.51;94.88;98267.22;5050143;28;20210;-80
2022/12/04 08:36:50;;;;;;;19.10;12.53;;;;;;;6.37;94.27;98257.94;5048676;28;20213;-78
2022/12/04 08:39:17;;;;;;;22.37;14.93;;;;;;;6.33;94.07;98259.69;5079363;28;20192;-76
2022/12/04 08:41:44;;;;;;;24.40;16.80;;;;;;;6.23;96.55;98260.66;5083124;28;20321;-79
2022/12/04 08:44:11;;;;;;;23.00;14.50;;;;;;;6.11;95.76;98249.63;5085604;28;20674;-80
2022/12/04 08:46:38;;;;;;;16.43;10.53;;;;;;;6.07;96.23;98258.22;5085688;28;20288;-78
2022/12/04 08:49:05;;;;;;;14.77;10.30;;;;;;;6.12;95.87;98252.16;5083244;28;20228;-77
2022/12/04 08:51:36;;;;;;;14.60;8.97;;;;;;;5.92;96.82;98245.50;5086145;28;20193;-80
2022/12/04 08:54:06;;;;;;;13.97;9.33;;;;;;;5.89;96.96;98254.09;5085947;28;20211;-80
2022/12/04 08:56:43;;;;;;;19.13;10.57;;;;;;;5.90;96.43;98224.09;5089177;28;20190;-83
2022/12/04 08:59:12;;;;;;;17.07;10.83;;;;;;;6.12;96.15;98244.44;5080353;28;20456;-77
2022/12/04 09:01:39;;;;;;;17.40;12.60;;;;;;;6.14;95.88;98244.47;5084423;28;20312;-78
2022/12/04 09:04:06;;;;;;;22.87;14.10;;;;;;;6.06;96.04;98239.38;5087225;28;20188;-78
2022/12/04 09:06:35;;;;;;;22.03;14.37;;;;;;;5.88;96.34;98176.97;5089447;28;20195;-78
2022/12/04 09:09:03;;;;;;;19.97;13.63;;;;;;;6.21;95.78;98240.94;5089148;28;20188;-78
2022/12/04 09:11:31;;;;;;;19.67;11.53;;;;;;;6.01;95.96;98243.72;5089346;28;20246;-79
2022/12/04 09:14:00;;;;;;;17.27;10.80;;;;;;;6.11;96.22;98237.63;5089059;28;20265;-77
2022/12/04 09:16:31;;;;;;;15.70;9.30;;;;;;;6.13;95.81;98238.47;5089663;28;20206;-79
2022/12/04 09:19:02;;;;;;;15.97;10.03;;;;;;;6.03;96.26;98231.69;5089612;28;20333;-82
2022/12/04 09:21:29;;;;;;;11.33;8.03;;;;;;;6.14;95.78;98237.56;5070253;28;20217;-80
2022/12/04 09:23:58;;;;;;;13.97;9.20;;;;;;;6.13;95.91;98225.59;5089102;28;20228;-78
2022/12/04 09:26:28;;;;;;;16.07;10.60;;;;;;;6.37;95.27;98232.22;5088091;28;20247;-79
2022/12/04 09:28:58;;;;;;;13.17;8.87;;;;;;;5.69;94.79;98148.84;5071139;28;20291;-78
2022/12/04 09:31:25;;;;;;;19.60;11.33;;;;;;;6.38;94.95;98226.22;5078457;28;20654;-80
2022/12/04 09:33:53;;;;;;;13.20;9.70;;;;;;;5.94;95.65;98195.78;5070488;28;20592;-82
2022/12/04 09:36:20;;;;;;;14.20;8.10;;;;;;;5.96;96.62;98212.03;5071524;28;20238;-76
2022/12/04 09:38:49;;;;;;;12.73;8.40;;;;;;;5.93;96.47;98199.22;5090055;28;20664;-79
2022/12/04 09:41:35;;;;;;;12.97;8.83;;;;;;;6.35;95.60;98214.22;5089580;28;20208;-78
2022/12/04 09:44:04;;;;;;;16.67;9.50;;;;;;;6.20;94.05;98198.13;5089141;28;20295;-76
2022/12/04 09:46:45;;;;;;;15.67;9.53;;;;;;;6.25;95.42;98207.47;5077424;28;20292;-83
2022/12/04 09:49:43;;;;;;;14.97;9.53;;;;;;;6.33;95.19;98204.81;5072245;28;20680;-80
2022/12/04 09:52:38;;;;;;;17.00;11.07;;;;;;;6.41;93.90;98209.00;5051100;28;20708;-81
2022/12/04 09:55:13;;;;;;;12.40;8.50;;;;;;;6.24;94.69;98205.78;5089467;28;20221;-79
2022/12/04 09:57:46;;;;;;;13.53;9.13;;;;;;;6.28;95.24;98193.75;5088901;28;20201;-82
2022/12/04 10:00:17;;;;;;;13.60;9.00;;;;;;;6.32;94.31;98211.69;5089493;28;20202;-77
2022/12/04 10:02:54;;;;;;;15.53;9.20;;;;;;;6.61;93.41;98206.22;5088672;28;20225;-81
2022/12/04 10:05:54;;;;;;;17.27;9.53;;;;;;;6.59;93.38;98201.09;5089016;28;20571;-80
2022/12/04 10:08:29;;;;;;;13.57;8.97;;;;;;;6.35;93.55;98172.22;5075760;28;20214;-79
2022/12/04 10:11:27;;;;;;;12.10;8.33;;;;;;;6.43;93.45;98191.84;5071034;28;20295;-80
2022/12/04 10:13:58;;;;;;;16.50;9.70;;;;;;;6.36;93.05;98190.22;5087309;28;20235;-80
2022/12/04 10:16:53;;;;;;;10.07;7.03;;;;;;;6.56;93.24;98180.56;5089123;28;20575;-81
2022/12/04 10:19:31;;;;;;;12.87;8.17;;;;;;;6.62;92.72;98176.19;5090333;28;20251;-79
2022/12/04 10:22:10;;;;;;;12.13;8.90;;;;;;;6.24;92.72;98174.94;5090313;28;20217;-82
2022/12/04 10:25:01;;;;;;;15.87;10.07;;;;;;;6.17;95.42;98173.28;5088595;28;20190;-81
2022/12/04 10:27:41;;;;;;;14.40;9.87;;;;;;;6.41;94.88;98172.13;5089195;28;20641;-82
2022/12/04 10:30:25;;;;;;;15.03;10.30;;;;;;;6.55;93.43;98165.97;5088808;28;20289;-83
2022/12/04 10:33:15;;;;;;;15.57;10.63;;;;;;;6.32;95.12;98172.25;5088547;28;20207;-80
2022/12/04 10:35:44;;;;;;;12.37;9.00;;;;;;;6.47;94.40;98161.81;5088869;28;20204;-78
2022/12/04 10:38:39;;;;;;;12.33;8.33;;;;;;;6.61;93.39;98159.06;5088122;28;20287;-80
2022/12/04 10:41:15;;;;;;;8.70;7.33;;;;;;;6.62;92.40;98151.31;5087672;28;20197;-80
2022/12/04 10:43:45;;;;;;;10.40;5.97;;;;;;;6.59;91.75;98141.91;5089094;28;20256;-80
2022/12/04 10:46:17;;;;;;;11.07;7.87;;;;;;;6.65;92.87;98150.41;5088083;28;20201;-79
2022/12/04 10:48:47;;;;;;;16.47;11.53;;;;;;;6.46;92.51;98124.94;5088854;28;20199;-78
2022/12/04 10:51:16;;;;;;;9.70;6.60;;;;;;;6.58;91.90;98140.22;5088433;28;20655;-81
2022/12/04 10:53:45;;;;;;;9.30;6.27;;;;;;;6.50;92.01;98126.59;5082129;28;20213;-81
2022/12/04 10:56:16;;;;;;;10.50;7.70;;;;;;;6.42;91.83;98097.53;5068992;28;20693;-78
2022/12/04 10:59:02;;;;;;;10.90;6.63;;;;;;;6.71;91.22;98133.19;5068579;28;20441;-81
2022/12/04 11:01:31;;;;;;;8.70;5.97;;;;;;;6.72;90.51;98136.63;5068326;28;20195;-78
2022/12/04 11:04:00;;;;;;;11.03;7.93;;;;;;;6.80;91.74;98137.38;5067319;28;20593;-79
2022/12/04 11:06:29;;;;;;;14.10;9.20;;;;;;;6.56;92.00;98131.66;5067832;28;20690;-80
2022/12/04 11:08:58;;;;;;;14.63;9.33;;;;;;;6.35;92.86;98125.91;5067711;28;20597;-80
2022/12/04 11:11:29;;;;;;;15.43;10.43;;;;;;;6.31;94.33;98108.81;5065110;28;20213;-81
2022/12/04 11:14:01;;;;;;;16.13;9.60;;;;;;;6.42;93.14;98114.69;5070241;28;20773;-81
2022/12/04 11:16:34;;;;;;;11.83;8.77;;;;;;;6.43;94.03;98114.66;5068603;28;20654;-80
2022/12/04 11:19:01;;;;;;;18.70;8.77;;;;;;;6.58;93.98;98113.63;5067577;28;20223;-78
2022/12/04 11:21:30;;;;;;;11.40;8.20;;;;;;;6.43;92.80;98100.94;5067237;28;20381;-79
2022/12/04 11:23:57;;;;;;;11.90;8.90;;;;;;;6.62;92.72;98115.28;5048988;28;20220;-80
2022/12/04 11:26:34;;;;;;;21.63;14.53;;;;;;;6.48;93.33;98107.75;5082113;28;20306;-79
2022/12/04 11:29:04;;;;;;;25.27;17.70;;;;;;;6.63;93.11;98098.13;5087485;28;20282;-77
2022/12/04 11:31:31;;;;;;;26.43;18.70;;;;;;;6.54;92.30;98099.94;5069328;28;20642;-75
2022/12/04 11:34:06;;;;;;;22.03;15.03;;;;;;;6.68;92.13;98114.38;5087293;28;20225;-76
2022/12/04 11:36:36;;;;;;;22.53;14.07;;;;;;;6.58;91.46;98073.31;5087587;28;20295;-78
2022/12/04 11:39:16;;;;;;;19.87;14.27;;;;;;;6.70;91.49;98074.03;5086687;28;20439;-79
2022/12/04 11:41:43;;;;;;;20.77;12.50;;;;;;;6.77;91.20;98093.63;5087330;28;20205;-77
2022/12/04 11:44:49;;;;;;;17.63;12.13;;;;;;;6.59;92.01;98116.16;5087897;28;20293;-81
2022/12/04 11:47:18;;;;;;;9.93;6.87;;;;;;;6.52;91.91;98111.97;5072509;28;20305;-81
2022/12/04 11:50:16;;;;;;;14.63;7.40;;;;;;;6.55;92.25;98100.81;5086865;28;20202;-79
2022/12/04 11:52:55;;;;;;;18.07;8.93;;;;;;;6.81;91.74;98115.88;5086961;28;20200;-79
2022/12/04 11:55:50;;;;;;;11.57;7.83;;;;;;;6.61;91.55;98075.00;5086885;28;20203;-81
2022/12/04 11:58:50;;;;;;;9.27;6.53;;;;;;;6.72;91.35;98080.00;5086553;28;20339;-81
2022/12/04 12:01:32;;;;;;;7.07;4.90;;;;;;;6.72;90.32;98105.72;5086983;28;20290;-81
2022/12/04 12:04:18;;;;;;;14.07;8.87;;;;;;;6.78;90.70;98103.06;5066417;28;20239;-80
2022/12/04 12:06:48;;;;;;;8.77;6.67;;;;;;;6.90;89.87;98101.19;5067093;28;20645;-80